createdAt,value
2023-05-20T00:01:40.860Z,2.50
2023-05-20T00:04:08.766Z,2.33
2023-05-20T00:06:36.437Z,2.88
2023-05-20T00:09:04.484Z,3.15
2023-05-20T00:11:32.213Z,3.53
2023-05-20T00:14:01.126Z,3.60
2023-05-20T00:16:28.601Z,2.63
2023-05-20T00:18:56.817Z,2.60
2023-05-20T00:21:24.400Z,2.53
2023-05-20T00:23:52.125Z,2.92
2023-05-20T00:26:19.802Z,2.25
2023-05-20T00:28:47.229Z,2.60
2023-05-20T00:31:16.098Z,2.42
2023-05-20T00:33:43.687Z,2.63
2023-05-20T00:36:11.282Z,2.25
2023-05-20T00:38:38.792Z,2.58
2023-05-20T00:41:06.501Z,2.42
2023-05-20T00:43:33.907Z,3.08
2023-05-20T00:46:01.790Z,2.70
2023-05-20T00:48:33.986Z,2.67
2023-05-20T00:51:02.913Z,2.70
2023-05-20T00:53:30.670Z,2.50
2023-05-20T00:55:58.228Z,2.88
2023-05-20T00:58:25.940Z,2.58
2023-05-20T01:00:53.487Z,2.55
2023-05-20T01:03:21.273Z,2.50
2023-05-20T01:05:50.568Z,2.53
2023-05-20T01:08:19.073Z,2.40
2023-05-20T01:10:48.408Z,2.55
2023-05-20T01:13:18.480Z,2.55
2023-05-20T01:15:48.548Z,2.80
2023-05-20T01:18:18.617Z,2.80
2023-05-20T01:20:47.574Z,2.47
2023-05-20T01:23:17.257Z,2.60
2023-05-20T01:25:44.751Z,2.33
2023-05-20T01:28:17.718Z,2.60
2023-05-20T01:30:47.177Z,2.92
2023-05-20T01:33:15.338Z,2.65
2023-05-20T01:35:43.486Z,2.80
2023-05-20T01:38:11.035Z,2.63
2023-05-20T01:40:41.918Z,2.90
2023-05-20T01:43:09.925Z,2.63
2023-05-20T01:45:38.333Z,2.78
2023-05-20T01:48:06.545Z,2.78
2023-05-20T01:50:34.261Z,2.90
2023-05-20T01:53:01.770Z,2.80
2023-05-20T01:55:29.434Z,2.50
2023-05-20T01:57:58.440Z,2.75
2023-05-20T02:00:26.087Z,2.40
2023-05-20T02:02:53.896Z,2.47
2023-05-20T02:05:21.578Z,2.75
2023-05-20T02:07:49.146Z,2.30
2023-05-20T02:10:16.797Z,2.58
2023-05-20T02:12:44.415Z,2.50
2023-05-20T02:15:13.348Z,2.83
2023-05-20T02:17:43.589Z,2.63
2023-05-20T02:20:11.765Z,2.67
2023-05-20T02:22:39.541Z,2.67
2023-05-20T02:25:08.446Z,2.40
2023-05-20T02:27:36.244Z,2.73
2023-05-20T02:30:03.790Z,3.00
2023-05-20T02:32:33.829Z,3.47
2023-05-20T02:35:01.334Z,2.83
2023-05-20T02:37:28.926Z,2.92
2023-05-20T02:39:56.705Z,2.72
2023-05-20T02:42:24.267Z,2.60
2023-05-20T02:44:53.357Z,2.92
2023-05-20T02:47:20.973Z,2.45
2023-05-20T02:49:49.760Z,2.60
2023-05-20T02:52:17.349Z,2.85
2023-05-20T02:54:44.850Z,2.83
2023-05-20T02:57:12.666Z,3.00
2023-05-20T02:59:40.179Z,2.85
2023-05-20T03:02:07.622Z,2.72
2023-05-20T03:04:38.511Z,2.67
2023-05-20T03:07:08.956Z,3.00
2023-05-20T03:09:36.627Z,2.85
2023-05-20T03:12:04.285Z,2.65
2023-05-20T03:14:31.663Z,3.08
2023-05-20T03:17:00.020Z,2.78
2023-05-20T03:19:27.567Z,2.83
2023-05-20T03:21:55.128Z,3.10
2023-05-20T03:24:24.675Z,2.45
2023-05-20T03:26:52.182Z,2.85
2023-05-20T03:29:19.687Z,3.10
2023-05-20T03:31:47.296Z,3.05
2023-05-20T03:34:14.804Z,2.90
2023-05-20T03:36:42.400Z,2.85
2023-05-20T03:39:09.860Z,3.10
2023-05-20T03:41:38.951Z,2.88
2023-05-20T03:44:06.425Z,3.20
2023-05-20T03:46:34.430Z,2.97
2023-05-20T03:49:02.921Z,3.00
2023-05-20T03:51:30.328Z,2.75
2023-05-20T03:53:57.822Z,3.00
2023-05-20T03:56:25.226Z,2.80
2023-05-20T03:58:54.018Z,3.03
2023-05-20T04:01:21.434Z,2.85
2023-05-20T04:03:48.917Z,3.17
2023-05-20T04:06:16.615Z,2.80
2023-05-20T04:08:44.109Z,2.90
2023-05-20T04:11:11.463Z,3.25
2023-05-20T04:13:39.022Z,2.80
2023-05-20T04:16:08.389Z,3.03
2023-05-20T04:18:39.423Z,3.20
2023-05-20T04:21:08.049Z,2.97
2023-05-20T04:23:35.562Z,3.22
2023-05-20T04:26:03.051Z,2.95
2023-05-20T04:28:31.479Z,3.10
2023-05-20T04:31:02.878Z,3.05
2023-05-20T04:33:32.917Z,3.00
2023-05-20T04:36:01.518Z,2.80
2023-05-20T04:38:30.300Z,3.13
2023-05-20T04:40:58.956Z,3.80
2023-05-20T04:43:29.927Z,3.22
2023-05-20T04:45:57.805Z,3.42
2023-05-20T04:48:25.247Z,3.28
2023-05-20T04:50:54.396Z,3.33
2023-05-20T04:53:23.410Z,3.30
2023-05-20T04:55:53.921Z,3.00
2023-05-20T04:58:24.266Z,2.95
2023-05-20T05:00:52.970Z,3.17
2023-05-20T05:03:20.703Z,3.05
2023-05-20T05:05:48.261Z,3.20
2023-05-20T05:08:17.767Z,3.45
2023-05-20T05:10:46.031Z,3.10
2023-05-20T05:13:13.641Z,3.63
2023-05-20T05:15:41.040Z,3.50
2023-05-20T05:18:08.548Z,3.38
2023-05-20T05:20:36.364Z,3.45
2023-05-20T05:23:03.880Z,3.58
2023-05-20T05:25:32.888Z,3.38
2023-05-20T05:28:00.509Z,3.80
2023-05-20T05:30:28.269Z,3.58
2023-05-20T05:32:55.852Z,3.60
2023-05-20T05:35:23.430Z,3.90
2023-05-20T05:37:50.915Z,3.70
2023-05-20T05:40:18.495Z,3.33
2023-05-20T05:42:47.235Z,3.53
2023-05-20T05:45:14.815Z,3.45
2023-05-20T05:47:43.567Z,3.85
2023-05-20T05:50:11.362Z,3.63
2023-05-20T05:52:38.768Z,3.83
2023-05-20T05:55:06.639Z,4.28
2023-05-20T05:57:34.145Z,4.30
2023-05-20T06:00:03.541Z,4.13
2023-05-20T06:02:31.168Z,4.28
2023-05-20T06:04:58.877Z,4.13
2023-05-20T06:07:26.368Z,3.83
2023-05-20T06:09:53.958Z,4.75
2023-05-20T06:12:21.340Z,4.07
2023-05-20T06:14:48.696Z,4.60
2023-05-20T06:17:18.304Z,5.07
2023-05-20T06:22:13.736Z,4.78
2023-05-20T06:24:41.160Z,4.88
2023-05-20T06:27:08.742Z,4.70
2023-05-20T06:29:36.230Z,5.00
2023-05-20T06:32:03.687Z,4.88
2023-05-20T06:34:32.501Z,4.88
2023-05-20T06:37:00.114Z,5.00
2023-05-20T06:39:27.642Z,5.25
2023-05-20T06:41:55.132Z,5.60
2023-05-20T06:44:22.658Z,5.30
2023-05-20T06:46:50.141Z,5.05
2023-05-20T06:49:17.693Z,5.53
2023-05-20T06:51:46.478Z,5.10
2023-05-20T06:54:13.844Z,5.40
2023-05-20T06:56:41.237Z,6.35
2023-05-20T06:59:08.799Z,5.65
2023-05-20T07:01:36.309Z,6.18
2023-05-20T07:04:03.864Z,5.40
2023-05-20T07:06:31.623Z,5.78
2023-05-20T07:09:01.068Z,5.90
2023-05-20T07:11:28.774Z,6.45
2023-05-20T07:13:56.198Z,5.93
2023-05-20T07:16:23.790Z,6.28
2023-05-20T07:18:51.389Z,5.72
2023-05-20T07:21:18.952Z,5.85
2023-05-20T07:23:46.455Z,6.38
2023-05-20T07:26:15.244Z,6.13
2023-05-20T07:28:44.020Z,6.60
2023-05-20T07:31:11.595Z,6.97
2023-05-20T07:33:40.209Z,6.40
2023-05-20T07:36:09.727Z,6.18
2023-05-20T07:38:39.727Z,5.68
2023-05-20T07:41:08.806Z,5.72
2023-05-20T07:43:37.795Z,6.93
2023-05-20T07:46:05.358Z,6.25
2023-05-20T07:48:33.024Z,6.28
2023-05-20T07:51:00.645Z,6.28
2023-05-20T07:53:28.217Z,6.28
2023-05-20T07:55:56.350Z,6.00
2023-05-20T07:58:23.881Z,5.70
2023-05-20T08:00:52.943Z,6.45
2023-05-20T08:03:22.283Z,6.90
2023-05-20T08:05:50.116Z,6.47
2023-05-20T08:08:17.573Z,6.45
2023-05-20T08:10:44.990Z,7.28
2023-05-20T08:13:12.545Z,6.50
2023-05-20T08:15:40.086Z,6.57
2023-05-20T08:18:08.985Z,6.35
2023-05-20T08:20:36.674Z,6.82
2023-05-20T08:23:04.099Z,6.05
2023-05-20T08:25:31.726Z,6.68
2023-05-20T08:28:00.515Z,6.55
2023-05-20T08:30:28.553Z,6.07
2023-05-20T08:33:00.023Z,5.75
2023-05-20T08:35:31.791Z,6.93
2023-05-20T08:38:01.396Z,5.88
2023-05-20T08:42:57.787Z,5.38
2023-05-20T08:45:28.906Z,7.43
2023-05-20T08:47:56.477Z,6.53
2023-05-20T08:50:23.961Z,6.22
2023-05-20T08:52:52.860Z,6.07
2023-05-20T08:55:27.017Z,6.32
2023-05-20T08:57:55.658Z,5.90
2023-05-20T09:00:27.343Z,6.70
2023-05-20T09:02:54.945Z,6.93
2023-05-20T09:05:24.481Z,6.25
2023-05-20T09:07:53.333Z,6.10
2023-05-20T09:10:20.992Z,6.30
2023-05-20T09:12:50.410Z,6.60
2023-05-20T09:15:17.863Z,5.82
2023-05-20T09:17:45.405Z,6.10
2023-05-20T09:20:14.105Z,5.50
2023-05-20T09:22:41.628Z,5.67
2023-05-20T09:25:12.494Z,6.00
2023-05-20T09:27:40.835Z,5.95
2023-05-20T09:30:08.780Z,6.68
2023-05-20T09:32:36.396Z,6.18
2023-05-20T09:35:06.268Z,6.60
2023-05-20T09:37:35.882Z,5.70
2023-05-20T09:42:35.428Z,6.38
2023-05-20T09:45:04.312Z,7.25
2023-05-20T09:47:32.094Z,7.10
2023-05-20T09:50:00.319Z,6.60
2023-05-20T09:52:27.828Z,7.05
2023-05-20T09:54:56.421Z,7.30
2023-05-20T09:57:24.504Z,7.22
2023-05-20T09:59:53.828Z,7.88
2023-05-20T10:02:21.551Z,7.88
2023-05-20T10:04:51.095Z,8.02
2023-05-20T10:09:56.585Z,7.00
2023-05-20T10:12:28.383Z,8.23
2023-05-20T10:15:01.512Z,8.65
2023-05-20T10:17:32.217Z,7.78
2023-05-20T10:20:00.612Z,7.70
2023-05-20T10:22:29.274Z,8.73
2023-05-20T10:24:59.867Z,7.82
2023-05-20T10:27:27.917Z,8.90
2023-05-20T10:29:57.256Z,8.18
2023-05-20T10:32:26.664Z,8.43
2023-05-20T10:34:55.662Z,7.32
2023-05-20T10:37:27.466Z,8.35
2023-05-20T10:40:04.094Z,7.78
2023-05-20T10:42:31.953Z,7.82
2023-05-20T10:44:59.528Z,8.35
2023-05-20T10:47:28.636Z,7.10
2023-05-20T10:49:56.233Z,8.52
2023-05-20T10:52:24.846Z,8.18
2023-05-20T10:54:56.470Z,7.85
2023-05-20T10:57:24.428Z,7.22
2023-05-20T10:59:52.399Z,7.70
2023-05-20T11:02:23.177Z,7.88
2023-05-20T11:04:52.236Z,7.55
2023-05-20T11:07:25.850Z,7.68
2023-05-20T11:09:53.388Z,7.63
2023-05-20T11:12:22.120Z,7.20
2023-05-20T11:14:49.972Z,8.30
2023-05-20T11:17:18.119Z,9.20
2023-05-20T11:19:45.851Z,8.25
2023-05-20T11:22:16.063Z,8.00
2023-05-20T11:24:43.551Z,8.60
2023-05-20T11:27:11.120Z,8.00
2023-05-20T11:29:39.583Z,7.68
2023-05-20T11:32:08.898Z,7.75
2023-05-20T11:34:37.351Z,8.40
2023-05-20T11:37:08.141Z,9.02
2023-05-20T11:39:37.052Z,8.60
2023-05-20T11:42:06.039Z,8.65
2023-05-20T11:44:33.778Z,8.82
2023-05-20T11:47:01.889Z,8.70
2023-05-20T11:49:30.706Z,8.77
2023-05-20T11:51:58.439Z,8.40
2023-05-20T11:54:26.363Z,8.20
2023-05-20T11:56:56.853Z,8.30
2023-05-20T11:59:25.255Z,7.88
2023-05-20T12:01:52.885Z,8.38
2023-05-20T12:04:20.462Z,8.63
2023-05-20T12:06:48.009Z,8.57
2023-05-20T12:09:15.433Z,8.95
2023-05-20T12:11:44.771Z,9.20
2023-05-20T12:14:14.113Z,8.98
2023-05-20T12:16:41.680Z,8.73
2023-05-20T12:19:09.671Z,8.57
2023-05-20T12:21:37.485Z,7.50
2023-05-20T12:24:06.960Z,9.00
2023-05-20T12:29:03.235Z,9.88
2023-05-20T12:31:34.664Z,8.98
2023-05-20T12:34:02.741Z,8.95
2023-05-20T12:36:30.641Z,9.95
2023-05-20T12:38:58.045Z,10.05
2023-05-20T12:41:26.149Z,8.85
2023-05-20T12:43:54.242Z,9.23
2023-05-20T12:46:21.877Z,9.00
2023-05-20T12:48:50.757Z,9.15
2023-05-20T12:51:19.356Z,9.10
2023-05-20T12:53:47.012Z,8.40
2023-05-20T12:56:14.849Z,9.23
2023-05-20T12:58:42.426Z,8.45
2023-05-20T13:01:09.905Z,8.88
2023-05-20T13:03:37.562Z,8.32
2023-05-20T13:06:07.005Z,8.32
2023-05-20T13:08:34.597Z,8.95
2023-05-20T13:11:02.536Z,8.57
2023-05-20T13:13:30.069Z,8.43
2023-05-20T13:15:57.573Z,8.35
2023-05-20T13:18:25.139Z,8.63
2023-05-20T13:20:52.790Z,8.18
2023-05-20T13:23:21.815Z,8.32
2023-05-20T13:25:49.443Z,7.88
2023-05-20T13:28:19.125Z,7.57
2023-05-20T13:30:46.712Z,8.55
2023-05-20T13:33:14.289Z,7.65
2023-05-20T13:35:41.838Z,7.90
2023-05-20T13:38:10.237Z,7.18
2023-05-20T13:40:39.080Z,7.53
2023-05-20T13:43:06.492Z,8.32
2023-05-20T13:45:34.070Z,7.28
2023-05-20T13:48:01.719Z,7.55
2023-05-20T13:50:29.412Z,7.80
2023-05-20T13:52:56.913Z,7.05
2023-05-20T13:55:25.090Z,7.50
2023-05-20T13:57:54.457Z,7.38
2023-05-20T14:00:22.487Z,7.95
2023-05-20T14:02:50.028Z,7.47
2023-05-20T14:05:18.897Z,7.55
2023-05-20T14:07:46.757Z,7.67
2023-05-20T14:10:14.505Z,7.68
2023-05-20T14:12:43.039Z,6.70
2023-05-20T14:15:12.576Z,7.68
2023-05-20T14:20:09.769Z,7.32
2023-05-20T14:22:37.699Z,6.70
2023-05-20T14:25:05.785Z,6.80
2023-05-20T14:27:33.568Z,6.80
2023-05-20T14:30:01.578Z,6.85
2023-05-20T14:32:30.858Z,6.72
2023-05-20T14:34:58.546Z,7.50
2023-05-20T14:37:28.003Z,6.95
2023-05-20T14:42:25.945Z,6.68
2023-05-20T14:44:53.490Z,7.60
2023-05-20T14:47:22.351Z,5.97
2023-05-20T14:49:51.766Z,7.00
2023-05-20T14:52:19.738Z,6.80
2023-05-20T14:54:49.287Z,6.43
2023-05-20T14:59:44.335Z,6.90
2023-05-20T15:02:14.768Z,6.25
2023-05-20T15:04:45.142Z,5.72
2023-05-20T15:09:41.330Z,6.15
2023-05-20T15:12:10.217Z,5.97
2023-05-20T15:14:38.612Z,6.18
2023-05-20T15:17:06.201Z,6.30
2023-05-20T15:19:33.977Z,5.75
2023-05-20T15:22:01.755Z,6.15
2023-05-20T15:24:31.345Z,5.38
2023-05-20T15:27:03.206Z,5.72
2023-05-20T15:29:31.502Z,6.47
2023-05-20T15:32:00.487Z,6.47
2023-05-20T15:34:28.691Z,5.72
2023-05-20T15:36:56.857Z,5.47
2023-05-20T15:39:26.120Z,5.43
2023-05-20T15:41:53.996Z,5.85
2023-05-20T15:44:22.809Z,5.15
2023-05-20T15:46:50.535Z,5.88
2023-05-20T15:49:18.173Z,5.32
2023-05-20T15:51:52.208Z,5.53
2023-05-20T15:54:29.292Z,5.60
2023-05-20T15:56:56.798Z,6.05
2023-05-20T15:59:28.484Z,5.53
2023-05-20T16:01:56.277Z,5.55
2023-05-20T16:04:23.991Z,5.50
2023-05-20T16:06:51.793Z,5.70
2023-05-20T16:09:22.667Z,6.00
2023-05-20T16:11:51.689Z,5.40
2023-05-20T16:14:19.605Z,5.25
2023-05-20T16:16:49.924Z,5.80
2023-05-20T16:19:17.449Z,5.45
2023-05-20T16:21:45.632Z,5.05
2023-05-20T16:24:14.587Z,5.68
2023-05-20T16:26:42.465Z,5.47
2023-05-20T16:29:12.072Z,5.13
2023-05-20T16:31:40.365Z,5.97
2023-05-20T16:34:09.504Z,5.25
2023-05-20T16:36:37.102Z,5.60
2023-05-20T16:39:05.024Z,6.00
2023-05-20T16:41:32.725Z,5.82
2023-05-20T16:44:00.176Z,5.07
2023-05-20T16:46:27.686Z,5.53
2023-05-20T16:48:55.178Z,5.43
2023-05-20T16:51:24.141Z,5.40
2023-05-20T16:53:51.639Z,6.07
2023-05-20T16:56:19.599Z,5.50
2023-05-20T16:58:47.422Z,6.00
2023-05-20T17:01:14.998Z,5.15
2023-05-20T17:03:42.523Z,5.75
2023-05-20T17:06:10.392Z,5.53
2023-05-20T17:08:42.028Z,6.20
2023-05-20T17:11:09.830Z,5.13
2023-05-20T17:13:41.849Z,5.55
2023-05-20T17:16:10.019Z,5.65
2023-05-20T17:18:40.780Z,5.55
2023-05-20T17:21:08.415Z,5.68
2023-05-20T17:23:35.994Z,5.65
2023-05-20T17:26:05.060Z,5.68
2023-05-20T17:28:36.978Z,5.80
2023-05-20T17:31:04.926Z,5.57
2023-05-20T17:33:32.517Z,5.90
2023-05-20T17:35:59.957Z,5.80
2023-05-20T17:38:27.498Z,5.35
2023-05-20T17:40:55.328Z,5.90
2023-05-20T17:43:25.300Z,6.35
2023-05-20T17:45:52.967Z,5.70
2023-05-20T17:48:22.609Z,5.78
2023-05-20T17:50:50.322Z,6.13
2023-05-20T17:53:19.663Z,6.15
2023-05-20T17:55:49.486Z,5.60
2023-05-20T17:58:17.237Z,6.03
2023-05-20T18:00:46.415Z,6.20
2023-05-20T18:03:14.297Z,6.07
2023-05-20T18:05:42.194Z,6.10
2023-05-20T18:08:11.075Z,6.65
2023-05-20T18:10:38.858Z,5.43
2023-05-20T18:13:06.665Z,5.97
2023-05-20T18:15:34.238Z,5.93
2023-05-20T18:18:03.270Z,6.93
2023-05-20T18:20:31.123Z,5.53
2023-05-20T18:23:01.562Z,6.38
2023-05-20T18:25:28.979Z,6.75
2023-05-20T18:27:56.554Z,6.00
2023-05-20T18:30:24.204Z,6.38
2023-05-20T18:32:53.583Z,6.28
2023-05-20T18:35:22.586Z,6.30
2023-05-20T18:37:51.449Z,6.07
2023-05-20T18:40:20.645Z,6.57
2023-05-20T18:42:48.243Z,6.35
2023-05-20T18:45:17.113Z,6.35
2023-05-20T18:47:44.893Z,5.85
2023-05-20T18:50:12.616Z,6.25
2023-05-20T18:52:43.088Z,6.60
2023-05-20T18:55:11.980Z,7.03
2023-05-20T18:57:39.420Z,6.70
2023-05-20T19:00:12.284Z,6.40
2023-05-20T19:02:40.566Z,6.88
2023-05-20T19:05:08.990Z,6.03
2023-05-20T19:07:36.473Z,6.50
2023-05-20T19:10:06.129Z,6.80
2023-05-20T19:12:36.617Z,6.80
2023-05-20T19:15:05.268Z,6.57
2023-05-20T19:17:32.866Z,6.30
2023-05-20T19:20:07.179Z,7.50
2023-05-20T19:22:35.023Z,6.43
2023-05-20T19:25:02.554Z,6.88
2023-05-20T19:27:31.789Z,6.78
2023-05-20T19:30:02.541Z,7.00
2023-05-20T19:32:35.160Z,6.93
2023-05-20T19:35:06.357Z,6.68
2023-05-20T19:37:37.001Z,6.60
2023-05-20T19:40:04.906Z,7.15
2023-05-20T19:42:34.963Z,7.13
2023-05-20T19:45:02.642Z,7.93
2023-05-20T19:47:30.395Z,7.10
2023-05-20T19:49:57.854Z,7.05
2023-05-20T19:52:25.388Z,7.00
2023-05-20T19:54:53.048Z,6.97
2023-05-20T19:57:20.670Z,6.90
2023-05-20T19:59:53.620Z,7.60
2023-05-20T20:02:21.725Z,6.82
2023-05-20T20:04:49.667Z,6.80
2023-05-20T20:07:20.659Z,7.57
2023-05-20T20:09:51.504Z,7.05
2023-05-20T20:12:19.287Z,7.50
2023-05-20T20:14:46.973Z,7.35
2023-05-20T20:17:17.708Z,7.13
2023-05-20T20:19:46.436Z,7.13
2023-05-20T20:22:14.226Z,7.33
2023-05-20T20:24:42.001Z,7.93
2023-05-20T20:27:09.918Z,8.30
2023-05-20T20:29:37.969Z,7.10
2023-05-20T20:32:06.576Z,7.05
2023-05-20T20:34:35.652Z,7.70
2023-05-20T20:37:03.658Z,6.80
2023-05-20T20:39:31.536Z,7.45
2023-05-20T20:42:00.876Z,6.88
2023-05-20T20:44:30.233Z,6.68
2023-05-20T20:47:04.657Z,7.07
2023-05-20T20:49:33.380Z,7.03
2023-05-20T20:52:06.468Z,7.07
2023-05-20T20:54:43.202Z,7.25
2023-05-20T20:57:14.369Z,7.70
2023-05-20T20:59:48.379Z,7.28
2023-05-20T21:02:16.907Z,7.38
2023-05-20T21:04:45.341Z,7.60
2023-05-20T21:07:18.761Z,7.88
2023-05-20T21:09:48.839Z,6.82
2023-05-20T21:12:17.824Z,7.90
2023-05-20T21:14:48.141Z,6.83
2023-05-20T21:17:17.255Z,7.53
2023-05-20T21:19:46.049Z,7.07
2023-05-20T21:22:20.653Z,7.10
2023-05-20T21:24:50.262Z,7.30
2023-05-20T21:29:51.102Z,7.50
2023-05-20T21:32:22.117Z,11.82
2023-05-20T21:34:58.189Z,9.38
2023-05-20T21:37:28.263Z,8.38
2023-05-20T21:39:56.226Z,8.00
2023-05-20T21:42:24.411Z,8.30
2023-05-20T21:44:52.775Z,7.93
2023-05-20T21:47:21.216Z,8.20
2023-05-20T21:49:49.349Z,8.23
2023-05-20T21:52:17.334Z,8.48
2023-05-20T21:54:46.852Z,8.35
2023-05-20T21:57:14.861Z,8.40
2023-05-20T21:59:42.974Z,9.65
2023-05-20T22:02:11.789Z,9.13
2023-05-20T22:04:40.105Z,9.15
2023-05-20T22:07:08.655Z,9.23
2023-05-20T22:09:36.894Z,9.30
2023-05-20T22:12:08.102Z,9.48
2023-05-20T22:14:36.152Z,9.35
2023-05-20T22:17:04.632Z,9.10
2023-05-20T22:19:32.807Z,9.68
2023-05-20T22:22:00.787Z,9.48
2023-05-20T22:24:28.797Z,9.35
2023-05-20T22:26:56.626Z,9.18
2023-05-20T22:29:26.572Z,8.95
2023-05-20T22:31:54.842Z,8.95
2023-05-20T22:34:22.839Z,9.57
2023-05-20T22:36:50.729Z,10.00
2023-05-20T22:39:18.538Z,9.68
2023-05-20T22:41:46.544Z,10.43
2023-05-20T22:44:14.935Z,10.68
2023-05-20T22:46:44.426Z,10.20
2023-05-20T22:49:13.055Z,9.98
2023-05-20T22:51:41.703Z,10.93
2023-05-20T22:54:09.719Z,9.65
2023-05-20T22:56:37.369Z,9.82
2023-05-20T22:59:05.102Z,9.90
2023-05-20T23:01:32.963Z,9.77
2023-05-20T23:04:02.187Z,9.52
2023-05-20T23:06:29.945Z,9.45
2023-05-20T23:08:57.623Z,9.50
2023-05-20T23:11:26.585Z,8.95
2023-05-20T23:13:54.381Z,8.93
2023-05-20T23:16:22.439Z,9.23
2023-05-20T23:18:50.328Z,9.00
2023-05-20T23:21:20.304Z,9.85
2023-05-20T23:23:47.952Z,9.70
2023-05-20T23:26:15.430Z,9.50
2023-05-20T23:28:43.500Z,9.30
2023-05-20T23:31:12.143Z,9.00
2023-05-20T23:33:40.090Z,9.73
2023-05-20T23:36:09.400Z,9.13
2023-05-20T23:38:38.675Z,9.35
2023-05-20T23:41:06.600Z,8.55
2023-05-20T23:43:34.496Z,9.63
2023-05-20T23:46:02.280Z,10.73
2023-05-20T23:48:30.079Z,9.20
2023-05-20T23:50:57.803Z,8.77
2023-05-20T23:53:25.652Z,8.93
2023-05-20T23:55:55.197Z,8.90
2023-05-20T23:58:23.625Z,8.93
